sensor_id;sensor_type;location;lat;lon;timestamp;P1;durP1;ratioP1;P2;durP2;ratioP2
52724;SDS011;38621;52.830;6.914;2023-03-01T00:01:31;13.00;;;9.43;;
52724;SDS011;38621;52.830;6.914;2023-03-01T00:03:57;14.32;;;9.52;;
52724;SDS011;38621;52.830;6.914;2023-03-01T00:06:24;11.13;;;7.93;;
52724;SDS011;38621;52.830;6.914;2023-03-01T00:08:50;11.95;;;8.20;;
52724;SDS011;38621;52.830;6.914;2023-03-01T00:11:18;15.27;;;9.57;;
52724;SDS011;38621;52.830;6.914;2023-03-01T00:13:44;13.85;;;9.05;;
52724;SDS011;38621;52.830;6.914;2023-03-01T00:16:12;14.13;;;9.05;;
52724;SDS011;38621;52.830;6.914;2023-03-01T00:18:40;14.07;;;8.70;;
52724;SDS011;38621;52.830;6.914;2023-03-01T00:21:05;15.10;;;9.70;;
52724;SDS011;38621;52.830;6.914;2023-03-01T00:23:33;12.50;;;8.05;;
52724;SDS011;38621;52.830;6.914;2023-03-01T00:25:59;11.07;;;7.50;;
52724;SDS011;38621;52.830;6.914;2023-03-01T00:28:25;11.20;;;8.13;;
52724;SDS011;38621;52.830;6.914;2023-03-01T00:30:51;10.32;;;7.22;;
52724;SDS011;38621;52.830;6.914;2023-03-01T00:33:17;10.70;;;7.72;;
52724;SDS011;38621;52.830;6.914;2023-03-01T00:35:43;13.07;;;8.52;;
52724;SDS011;38621;52.830;6.914;2023-03-01T00:38:09;14.85;;;9.43;;
52724;SDS011;38621;52.830;6.914;2023-03-01T00:40:35;14.02;;;8.95;;
52724;SDS011;38621;52.830;6.914;2023-03-01T00:43:01;13.40;;;9.10;;
52724;SDS011;38621;52.830;6.914;2023-03-01T00:45:28;12.48;;;8.82;;
52724;SDS011;38621;52.830;6.914;2023-03-01T00:47:56;13.27;;;8.68;;
52724;SDS011;38621;52.830;6.914;2023-03-01T00:50:22;12.93;;;8.77;;
52724;SDS011;38621;52.830;6.914;2023-03-01T00:52:52;13.90;;;9.05;;
52724;SDS011;38621;52.830;6.914;2023-03-01T00:55:18;13.43;;;8.00;;
52724;SDS011;38621;52.830;6.914;2023-03-01T00:57:44;12.60;;;8.20;;
52724;SDS011;38621;52.830;6.914;2023-03-01T01:00:10;14.98;;;8.88;;
52724;SDS011;38621;52.830;6.914;2023-03-01T01:02:36;14.38;;;9.10;;
52724;SDS011;38621;52.830;6.914;2023-03-01T01:05:02;18.65;;;10.80;;
52724;SDS011;38621;52.830;6.914;2023-03-01T01:07:29;13.05;;;8.90;;
52724;SDS011;38621;52.830;6.914;2023-03-01T01:09:54;10.13;;;7.28;;
52724;SDS011;38621;52.830;6.914;2023-03-01T01:12:20;13.38;;;8.57;;
52724;SDS011;38621;52.830;6.914;2023-03-01T01:14:46;13.60;;;9.25;;
52724;SDS011;38621;52.830;6.914;2023-03-01T01:17:11;14.35;;;9.02;;
52724;SDS011;38621;52.830;6.914;2023-03-01T01:19:37;10.98;;;7.20;;
52724;SDS011;38621;52.830;6.914;2023-03-01T01:22:03;11.65;;;7.72;;
52724;SDS011;38621;52.830;6.914;2023-03-01T01:24:29;11.88;;;8.77;;
52724;SDS011;38621;52.830;6.914;2023-03-01T01:26:55;16.88;;;8.85;;
52724;SDS011;38621;52.830;6.914;2023-03-01T01:29:21;17.02;;;9.30;;
52724;SDS011;38621;52.830;6.914;2023-03-01T01:31:46;19.73;;;10.77;;
52724;SDS011;38621;52.830;6.914;2023-03-01T01:34:13;52.13;;;16.35;;
52724;SDS011;38621;52.830;6.914;2023-03-01T01:36:41;19.60;;;12.07;;
52724;SDS011;38621;52.830;6.914;2023-03-01T01:39:06;21.48;;;11.48;;
52724;SDS011;38621;52.830;6.914;2023-03-01T01:41:32;27.02;;;11.65;;
52724;SDS011;38621;52.830;6.914;2023-03-01T01:47:12;49.70;;;16.33;;
52724;SDS011;38621;52.830;6.914;2023-03-01T01:49:43;27.73;;;14.60;;
52724;SDS011;38621;52.830;6.914;2023-03-01T01:52:14;94.85;;;16.92;;
52724;SDS011;38621;52.830;6.914;2023-03-01T01:54:56;27.55;;;13.05;;
52724;SDS011;38621;52.830;6.914;2023-03-01T01:57:27;53.38;;;12.43;;
52724;SDS011;38621;52.830;6.914;2023-03-01T02:00:03;25.10;;;8.35;;
52724;SDS011;38621;52.830;6.914;2023-03-01T02:02:31;15.00;;;12.07;;
52724;SDS011;38621;52.830;6.914;2023-03-01T02:05:40;13.48;;;10.50;;
52724;SDS011;38621;52.830;6.914;2023-03-01T02:07:52;13.57;;;9.10;;
52724;SDS011;38621;52.830;6.914;2023-03-01T02:10:19;14.70;;;9.45;;
52724;SDS011;38621;52.830;6.914;2023-03-01T02:12:46;13.30;;;9.82;;
52724;SDS011;38621;52.830;6.914;2023-03-01T02:15:12;12.88;;;9.60;;
52724;SDS011;38621;52.830;6.914;2023-03-01T02:17:37;13.48;;;9.00;;
52724;SDS011;38621;52.830;6.914;2023-03-01T02:22:39;15.02;;;9.25;;
52724;SDS011;38621;52.830;6.914;2023-03-01T02:30:21;24.88;;;11.18;;
52724;SDS011;38621;52.830;6.914;2023-03-01T02:32:49;41.38;;;12.25;;
52724;SDS011;38621;52.830;6.914;2023-03-01T02:35:16;34.97;;;11.02;;
52724;SDS011;38621;52.830;6.914;2023-03-01T02:37:44;36.28;;;17.70;;
52724;SDS011;38621;52.830;6.914;2023-03-01T02:40:11;25.52;;;15.63;;
52724;SDS011;38621;52.830;6.914;2023-03-01T02:42:55;55.90;;;11.35;;
52724;SDS011;38621;52.830;6.914;2023-03-01T02:45:23;90.00;;;14.05;;
52724;SDS011;38621;52.830;6.914;2023-03-01T02:47:49;101.15;;;13.98;;
52724;SDS011;38621;52.830;6.914;2023-03-01T02:52:57;128.13;;;16.85;;
52724;SDS011;38621;52.830;6.914;2023-03-01T02:55:27;86.30;;;17.45;;
52724;SDS011;38621;52.830;6.914;2023-03-01T02:57:53;30.20;;;9.48;;
52724;SDS011;38621;52.830;6.914;2023-03-01T03:00:28;35.17;;;9.95;;
52724;SDS011;38621;52.830;6.914;2023-03-01T03:03:00;63.35;;;10.27;;
52724;SDS011;38621;52.830;6.914;2023-03-01T03:05:28;45.17;;;8.05;;
52724;SDS011;38621;52.830;6.914;2023-03-01T03:07:55;47.92;;;9.50;;
52724;SDS011;38621;52.830;6.914;2023-03-01T03:10:36;85.75;;;16.98;;
52724;SDS011;38621;52.830;6.914;2023-03-01T03:13:06;54.08;;;13.75;;
52724;SDS011;38621;52.830;6.914;2023-03-01T03:15:33;77.45;;;16.20;;
52724;SDS011;38621;52.830;6.914;2023-03-01T03:18:01;38.55;;;11.77;;
52724;SDS011;38621;52.830;6.914;2023-03-01T03:20:28;17.40;;;9.95;;
52724;SDS011;38621;52.830;6.914;2023-03-01T03:22:55;14.38;;;9.25;;
52724;SDS011;38621;52.830;6.914;2023-03-01T03:25:23;15.65;;;10.68;;
52724;SDS011;38621;52.830;6.914;2023-03-01T03:27:49;29.25;;;17.05;;
52724;SDS011;38621;52.830;6.914;2023-03-01T03:30:22;28.00;;;18.02;;
52724;SDS011;38621;52.830;6.914;2023-03-01T03:32:53;28.88;;;18.77;;
52724;SDS011;38621;52.830;6.914;2023-03-01T03:35:22;24.67;;;15.48;;
52724;SDS011;38621;52.830;6.914;2023-03-01T03:37:50;22.98;;;14.15;;
52724;SDS011;38621;52.830;6.914;2023-03-01T03:43:05;25.00;;;15.15;;
52724;SDS011;38621;52.830;6.914;2023-03-01T03:45:41;22.73;;;14.48;;
52724;SDS011;38621;52.830;6.914;2023-03-01T03:48:09;24.63;;;14.85;;
52724;SDS011;38621;52.830;6.914;2023-03-01T03:50:35;19.38;;;12.05;;
52724;SDS011;38621;52.830;6.914;2023-03-01T03:53:03;15.30;;;10.35;;
52724;SDS011;38621;52.830;6.914;2023-03-01T03:55:31;17.75;;;11.80;;
52724;SDS011;38621;52.830;6.914;2023-03-01T03:57:58;15.85;;;10.93;;
52724;SDS011;38621;52.830;6.914;2023-03-01T04:00:32;19.25;;;12.80;;
52724;SDS011;38621;52.830;6.914;2023-03-01T04:02:59;14.60;;;10.50;;
52724;SDS011;38621;52.830;6.914;2023-03-01T04:05:26;12.20;;;8.20;;
52724;SDS011;38621;52.830;6.914;2023-03-01T04:07:52;28.67;;;10.27;;
52724;SDS011;38621;52.830;6.914;2023-03-01T04:10:26;22.02;;;11.10;;
52724;SDS011;38621;52.830;6.914;2023-03-01T04:12:56;19.13;;;11.57;;
52724;SDS011;38621;52.830;6.914;2023-03-01T04:15:22;16.38;;;10.70;;
52724;SDS011;38621;52.830;6.914;2023-03-01T04:17:49;19.80;;;12.55;;
52724;SDS011;38621;52.830;6.914;2023-03-01T04:20:18;21.27;;;10.75;;
52724;SDS011;38621;52.830;6.914;2023-03-01T04:25:53;18.27;;;7.55;;
52724;SDS011;38621;52.830;6.914;2023-03-01T04:30:47;15.57;;;9.93;;
52724;SDS011;38621;52.830;6.914;2023-03-01T04:33:13;13.23;;;8.77;;
52724;SDS011;38621;52.830;6.914;2023-03-01T04:35:38;15.60;;;10.02;;
52724;SDS011;38621;52.830;6.914;2023-03-01T04:38:05;13.20;;;9.35;;
52724;SDS011;38621;52.830;6.914;2023-03-01T04:40:32;17.58;;;11.07;;
52724;SDS011;38621;52.830;6.914;2023-03-01T04:42:58;15.68;;;10.48;;
52724;SDS011;38621;52.830;6.914;2023-03-01T04:45:24;14.65;;;10.18;;
52724;SDS011;38621;52.830;6.914;2023-03-01T04:47:50;12.73;;;9.10;;
52724;SDS011;38621;52.830;6.914;2023-03-01T04:50:17;31.63;;;17.80;;
52724;SDS011;38621;52.830;6.914;2023-03-01T04:52:46;26.42;;;14.98;;
52724;SDS011;38621;52.830;6.914;2023-03-01T04:55:12;23.27;;;13.13;;
52724;SDS011;38621;52.830;6.914;2023-03-01T04:57:38;20.13;;;12.48;;
52724;SDS011;38621;52.830;6.914;2023-03-01T05:00:05;16.15;;;9.77;;
52724;SDS011;38621;52.830;6.914;2023-03-01T05:02:55;13.75;;;9.55;;
52724;SDS011;38621;52.830;6.914;2023-03-01T05:05:24;15.40;;;9.70;;
52724;SDS011;38621;52.830;6.914;2023-03-01T05:07:52;14.38;;;8.98;;
52724;SDS011;38621;52.830;6.914;2023-03-01T05:10:19;13.95;;;9.20;;
52724;SDS011;38621;52.830;6.914;2023-03-01T05:12:45;16.38;;;12.70;;
52724;SDS011;38621;52.830;6.914;2023-03-01T05:15:11;14.75;;;9.05;;
52724;SDS011;38621;52.830;6.914;2023-03-01T05:17:37;12.65;;;9.10;;
52724;SDS011;38621;52.830;6.914;2023-03-01T05:20:03;15.65;;;10.23;;
52724;SDS011;38621;52.830;6.914;2023-03-01T05:22:33;14.70;;;9.55;;
52724;SDS011;38621;52.830;6.914;2023-03-01T05:24:59;13.88;;;8.90;;
52724;SDS011;38621;52.830;6.914;2023-03-01T05:27:25;14.48;;;8.57;;
52724;SDS011;38621;52.830;6.914;2023-03-01T05:29:51;11.43;;;8.40;;
52724;SDS011;38621;52.830;6.914;2023-03-01T05:32:16;11.57;;;8.32;;
52724;SDS011;38621;52.830;6.914;2023-03-01T05:34:42;14.57;;;9.13;;
52724;SDS011;38621;52.830;6.914;2023-03-01T05:37:11;15.52;;;9.80;;
52724;SDS011;38621;52.830;6.914;2023-03-01T05:39:37;13.13;;;9.75;;
52724;SDS011;38621;52.830;6.914;2023-03-01T05:42:03;15.25;;;9.57;;
52724;SDS011;38621;52.830;6.914;2023-03-01T05:44:29;13.73;;;9.57;;
52724;SDS011;38621;52.830;6.914;2023-03-01T05:46:55;17.23;;;10.35;;
52724;SDS011;38621;52.830;6.914;2023-03-01T05:49:21;16.15;;;9.55;;
52724;SDS011;38621;52.830;6.914;2023-03-01T05:51:51;14.85;;;9.55;;
52724;SDS011;38621;52.830;6.914;2023-03-01T05:54:18;15.63;;;10.15;;
52724;SDS011;38621;52.830;6.914;2023-03-01T05:56:45;14.07;;;9.00;;
52724;SDS011;38621;52.830;6.914;2023-03-01T05:59:12;14.60;;;9.02;;
52724;SDS011;38621;52.830;6.914;2023-03-01T06:01:38;14.95;;;9.60;;
52724;SDS011;38621;52.830;6.914;2023-03-01T06:04:04;17.33;;;10.43;;
52724;SDS011;38621;52.830;6.914;2023-03-01T06:06:34;16.35;;;10.40;;
52724;SDS011;38621;52.830;6.914;2023-03-01T06:09:02;16.55;;;10.02;;
52724;SDS011;38621;52.830;6.914;2023-03-01T06:11:29;14.73;;;9.88;;
52724;SDS011;38621;52.830;6.914;2023-03-01T06:13:54;14.38;;;9.82;;
52724;SDS011;38621;52.830;6.914;2023-03-01T06:16:20;15.10;;;9.43;;
52724;SDS011;38621;52.830;6.914;2023-03-01T06:18:46;15.98;;;9.77;;
52724;SDS011;38621;52.830;6.914;2023-03-01T06:21:11;15.93;;;9.05;;
52724;SDS011;38621;52.830;6.914;2023-03-01T06:23:37;13.43;;;8.80;;
52724;SDS011;38621;52.830;6.914;2023-03-01T06:26:06;12.43;;;7.97;;
52724;SDS011;38621;52.830;6.914;2023-03-01T06:28:33;12.10;;;8.50;;
52724;SDS011;38621;52.830;6.914;2023-03-01T06:30:59;11.38;;;8.23;;
52724;SDS011;38621;52.830;6.914;2023-03-01T06:33:25;11.32;;;7.97;;
52724;SDS011;38621;52.830;6.914;2023-03-01T06:35:51;11.65;;;7.13;;
52724;SDS011;38621;52.830;6.914;2023-03-01T06:38:19;11.15;;;7.90;;
52724;SDS011;38621;52.830;6.914;2023-03-01T06:40:45;12.80;;;8.18;;
52724;SDS011;38621;52.830;6.914;2023-03-01T06:43:17;13.90;;;8.75;;
52724;SDS011;38621;52.830;6.914;2023-03-01T06:45:42;13.43;;;9.05;;
52724;SDS011;38621;52.830;6.914;2023-03-01T06:48:08;12.35;;;8.25;;
52724;SDS011;38621;52.830;6.914;2023-03-01T06:50:34;11.70;;;8.70;;
52724;SDS011;38621;52.830;6.914;2023-03-01T06:53:00;11.52;;;7.68;;
52724;SDS011;38621;52.830;6.914;2023-03-01T06:55:26;12.57;;;7.85;;
52724;SDS011;38621;52.830;6.914;2023-03-01T06:57:55;12.07;;;8.32;;
52724;SDS011;38621;52.830;6.914;2023-03-01T07:00:25;13.70;;;8.32;;
52724;SDS011;38621;52.830;6.914;2023-03-01T07:02:51;13.07;;;7.85;;
52724;SDS011;38621;52.830;6.914;2023-03-01T07:05:17;11.50;;;7.78;;
52724;SDS011;38621;52.830;6.914;2023-03-01T07:07:43;11.93;;;8.00;;
52724;SDS011;38621;52.830;6.914;2023-03-01T07:10:09;10.30;;;7.35;;
52724;SDS011;38621;52.830;6.914;2023-03-01T07:12:36;9.93;;;6.85;;
52724;SDS011;38621;52.830;6.914;2023-03-01T07:15:02;9.60;;;6.75;;
52724;SDS011;38621;52.830;6.914;2023-03-01T07:17:28;9.88;;;6.95;;
52724;SDS011;38621;52.830;6.914;2023-03-01T07:19:54;9.95;;;7.93;;
52724;SDS011;38621;52.830;6.914;2023-03-01T07:22:19;10.75;;;7.60;;
52724;SDS011;38621;52.830;6.914;2023-03-01T07:24:45;9.77;;;7.25;;
52724;SDS011;38621;52.830;6.914;2023-03-01T07:27:11;12.52;;;7.53;;
52724;SDS011;38621;52.830;6.914;2023-03-01T07:29:36;10.63;;;7.05;;
52724;SDS011;38621;52.830;6.914;2023-03-01T07:32:03;12.20;;;8.45;;
52724;SDS011;38621;52.830;6.914;2023-03-01T07:34:29;12.98;;;8.05;;
52724;SDS011;38621;52.830;6.914;2023-03-01T07:36:55;12.50;;;8.10;;
52724;SDS011;38621;52.830;6.914;2023-03-01T07:39:21;12.25;;;8.32;;
52724;SDS011;38621;52.830;6.914;2023-03-01T07:41:48;13.32;;;9.35;;
52724;SDS011;38621;52.830;6.914;2023-03-01T07:44:14;14.13;;;9.02;;
52724;SDS011;38621;52.830;6.914;2023-03-01T07:46:41;14.20;;;9.43;;
52724;SDS011;38621;52.830;6.914;2023-03-01T07:49:07;14.18;;;9.48;;
52724;SDS011;38621;52.830;6.914;2023-03-01T07:51:33;14.20;;;9.35;;
52724;SDS011;38621;52.830;6.914;2023-03-01T07:53:58;15.50;;;10.30;;
52724;SDS011;38621;52.830;6.914;2023-03-01T07:56:24;15.50;;;10.05;;
52724;SDS011;38621;52.830;6.914;2023-03-01T07:58:50;16.35;;;10.23;;
52724;SDS011;38621;52.830;6.914;2023-03-01T08:01:16;16.08;;;11.07;;
52724;SDS011;38621;52.830;6.914;2023-03-01T08:03:44;16.80;;;10.73;;
52724;SDS011;38621;52.830;6.914;2023-03-01T08:06:10;15.98;;;10.65;;
52724;SDS011;38621;52.830;6.914;2023-03-01T08:08:38;17.10;;;11.13;;
52724;SDS011;38621;52.830;6.914;2023-03-01T08:11:04;17.58;;;11.48;;
52724;SDS011;38621;52.830;6.914;2023-03-01T08:13:31;18.50;;;11.57;;
52724;SDS011;38621;52.830;6.914;2023-03-01T08:16:05;16.95;;;12.13;;
52724;SDS011;38621;52.830;6.914;2023-03-01T08:18:33;18.38;;;11.13;;
52724;SDS011;38621;52.830;6.914;2023-03-01T08:21:03;21.48;;;14.85;;
52724;SDS011;38621;52.830;6.914;2023-03-01T08:23:29;19.90;;;13.48;;
52724;SDS011;38621;52.830;6.914;2023-03-01T08:26:02;15.35;;;10.57;;
52724;SDS011;38621;52.830;6.914;2023-03-01T08:28:32;16.13;;;10.75;;
52724;SDS011;38621;52.830;6.914;2023-03-01T08:30:58;16.20;;;10.68;;
52724;SDS011;38621;52.830;6.914;2023-03-01T08:33:24;16.02;;;11.55;;
52724;SDS011;38621;52.830;6.914;2023-03-01T08:35:49;14.68;;;10.60;;
52724;SDS011;38621;52.830;6.914;2023-03-01T08:38:15;16.50;;;10.95;;
52724;SDS011;38621;52.830;6.914;2023-03-01T08:40:41;16.33;;;11.13;;
52724;SDS011;38621;52.830;6.914;2023-03-01T08:43:06;15.75;;;10.60;;
52724;SDS011;38621;52.830;6.914;2023-03-01T08:45:32;16.73;;;10.38;;
52724;SDS011;38621;52.830;6.914;2023-03-01T08:47:58;14.25;;;10.68;;
52724;SDS011;38621;52.830;6.914;2023-03-01T08:50:23;15.30;;;10.27;;
52724;SDS011;38621;52.830;6.914;2023-03-01T08:52:49;15.32;;;10.45;;
52724;SDS011;38621;52.830;6.914;2023-03-01T08:55:15;15.32;;;10.32;;
52724;SDS011;38621;52.830;6.914;2023-03-01T08:57:42;14.85;;;9.60;;
52724;SDS011;38621;52.830;6.914;2023-03-01T09:00:09;15.88;;;9.57;;
52724;SDS011;38621;52.830;6.914;2023-03-01T09:02:36;12.10;;;9.35;;
52724;SDS011;38621;52.830;6.914;2023-03-01T09:05:03;14.77;;;9.90;;
52724;SDS011;38621;52.830;6.914;2023-03-01T09:07:29;15.50;;;8.77;;
52724;SDS011;38621;52.830;6.914;2023-03-01T09:09:55;14.73;;;9.43;;
52724;SDS011;38621;52.830;6.914;2023-03-01T09:12:21;13.68;;;8.90;;
52724;SDS011;38621;52.830;6.914;2023-03-01T09:14:47;11.25;;;8.48;;
52724;SDS011;38621;52.830;6.914;2023-03-01T09:17:12;10.98;;;8.15;;
52724;SDS011;38621;52.830;6.914;2023-03-01T09:19:38;11.45;;;8.65;;
52724;SDS011;38621;52.830;6.914;2023-03-01T09:22:04;14.40;;;9.43;;
52724;SDS011;38621;52.830;6.914;2023-03-01T09:24:30;11.70;;;8.63;;
52724;SDS011;38621;52.830;6.914;2023-03-01T09:26:55;11.43;;;8.90;;
52724;SDS011;38621;52.830;6.914;2023-03-01T09:29:22;12.27;;;8.43;;
52724;SDS011;38621;52.830;6.914;2023-03-01T09:31:48;12.40;;;8.75;;
52724;SDS011;38621;52.830;6.914;2023-03-01T09:34:13;10.98;;;8.13;;
52724;SDS011;38621;52.830;6.914;2023-03-01T09:36:41;10.65;;;7.45;;
52724;SDS011;38621;52.830;6.914;2023-03-01T09:39:06;10.48;;;7.63;;
52724;SDS011;38621;52.830;6.914;2023-03-01T09:46:50;12.02;;;8.77;;
52724;SDS011;38621;52.830;6.914;2023-03-01T09:49:18;12.93;;;8.38;;
52724;SDS011;38621;52.830;6.914;2023-03-01T09:51:54;11.63;;;8.30;;
52724;SDS011;38621;52.830;6.914;2023-03-01T09:54:39;13.25;;;8.55;;
52724;SDS011;38621;52.830;6.914;2023-03-01T09:59:56;10.20;;;7.60;;
52724;SDS011;38621;52.830;6.914;2023-03-01T10:05:14;9.98;;;6.43;;
52724;SDS011;38621;52.830;6.914;2023-03-01T10:10:34;6.90;;;4.32;;
52724;SDS011;38621;52.830;6.914;2023-03-01T10:13:04;6.82;;;4.53;;
52724;SDS011;38621;52.830;6.914;2023-03-01T10:15:44;5.50;;;3.45;;
52724;SDS011;38621;52.830;6.914;2023-03-01T10:18:16;5.90;;;4.32;;
52724;SDS011;38621;52.830;6.914;2023-03-01T10:23:17;6.45;;;4.13;;
52724;SDS011;38621;52.830;6.914;2023-03-01T10:28:47;5.43;;;4.10;;
52724;SDS011;38621;52.830;6.914;2023-03-01T10:31:16;5.32;;;3.38;;
52724;SDS011;38621;52.830;6.914;2023-03-01T10:33:47;5.50;;;3.25;;
52724;SDS011;38621;52.830;6.914;2023-03-01T10:36:16;5.75;;;3.10;;
52724;SDS011;38621;52.830;6.914;2023-03-01T10:38:49;4.25;;;3.00;;
52724;SDS011;38621;52.830;6.914;2023-03-01T10:41:24;5.43;;;3.10;;
52724;SDS011;38621;52.830;6.914;2023-03-01T10:43:52;5.30;;;3.30;;
52724;SDS011;38621;52.830;6.914;2023-03-01T10:51:44;5.68;;;4.18;;
52724;SDS011;38621;52.830;6.914;2023-03-01T10:56:57;5.50;;;3.92;;
52724;SDS011;38621;52.830;6.914;2023-03-01T10:59:34;5.90;;;3.67;;
52724;SDS011;38621;52.830;6.914;2023-03-01T11:07:25;5.63;;;3.00;;
52724;SDS011;38621;52.830;6.914;2023-03-01T11:09:51;4.30;;;3.20;;
52724;SDS011;38621;52.830;6.914;2023-03-01T11:12:17;5.38;;;3.50;;
52724;SDS011;38621;52.830;6.914;2023-03-01T11:14:47;5.22;;;3.67;;
52724;SDS011;38621;52.830;6.914;2023-03-01T11:20:00;5.30;;;3.17;;
52724;SDS011;38621;52.830;6.914;2023-03-01T11:22:42;4.68;;;3.13;;
52724;SDS011;38621;52.830;6.914;2023-03-01T11:25:15;3.75;;;2.80;;
52724;SDS011;38621;52.830;6.914;2023-03-01T11:27:44;3.67;;;2.42;;
52724;SDS011;38621;52.830;6.914;2023-03-01T11:35:32;5.18;;;3.08;;
52724;SDS011;38621;52.830;6.914;2023-03-01T11:57:09;5.95;;;3.97;;
52724;SDS011;38621;52.830;6.914;2023-03-01T12:02:20;4.95;;;3.63;;
52724;SDS011;38621;52.830;6.914;2023-03-01T12:13:20;5.53;;;3.40;;
52724;SDS011;38621;52.830;6.914;2023-03-01T12:16:09;6.15;;;4.07;;
52724;SDS011;38621;52.830;6.914;2023-03-01T12:24:39;5.90;;;4.00;;
52724;SDS011;38621;52.830;6.914;2023-03-01T12:27:31;5.40;;;4.05;;
52724;SDS011;38621;52.830;6.914;2023-03-01T12:43:58;6.18;;;4.40;;
52724;SDS011;38621;52.830;6.914;2023-03-01T12:49:34;6.43;;;4.47;;
52724;SDS011;38621;52.830;6.914;2023-03-01T12:55:36;7.18;;;5.38;;
52724;SDS011;38621;52.830;6.914;2023-03-01T13:06:44;5.10;;;3.95;;
52724;SDS011;38621;52.830;6.914;2023-03-01T13:09:29;7.93;;;4.53;;
52724;SDS011;38621;52.830;6.914;2023-03-01T13:11:57;7.03;;;4.65;;
52724;SDS011;38621;52.830;6.914;2023-03-01T13:16:48;7.07;;;4.80;;
52724;SDS011;38621;52.830;6.914;2023-03-01T13:21:45;6.85;;;4.82;;
52724;SDS011;38621;52.830;6.914;2023-03-01T13:24:31;7.28;;;4.57;;
52724;SDS011;38621;52.830;6.914;2023-03-01T13:29:45;7.25;;;4.78;;
52724;SDS011;38621;52.830;6.914;2023-03-01T13:32:19;8.98;;;5.28;;
52724;SDS011;38621;52.830;6.914;2023-03-01T13:35:15;7.40;;;5.20;;
52724;SDS011;38621;52.830;6.914;2023-03-01T13:37:44;7.57;;;5.25;;
52724;SDS011;38621;52.830;6.914;2023-03-01T13:47:49;8.23;;;5.20;;
52724;SDS011;38621;52.830;6.914;2023-03-01T13:50:20;8.43;;;5.30;;
52724;SDS011;38621;52.830;6.914;2023-03-01T13:53:23;7.82;;;5.00;;
52724;SDS011;38621;52.830;6.914;2023-03-01T13:55:51;8.95;;;5.28;;
52724;SDS011;38621;52.830;6.914;2023-03-01T13:58:22;8.32;;;5.47;;
52724;SDS011;38621;52.830;6.914;2023-03-01T14:01:02;8.18;;;5.38;;
52724;SDS011;38621;52.830;6.914;2023-03-01T14:03:30;7.55;;;5.78;;
52724;SDS011;38621;52.830;6.914;2023-03-01T14:08:41;6.97;;;5.22;;
52724;SDS011;38621;52.830;6.914;2023-03-01T14:21:57;7.55;;;5.35;;
52724;SDS011;38621;52.830;6.914;2023-03-01T14:24:52;7.53;;;5.20;;
52724;SDS011;38621;52.830;6.914;2023-03-01T14:27:35;6.47;;;5.00;;
52724;SDS011;38621;52.830;6.914;2023-03-01T14:30:11;7.32;;;5.15;;
52724;SDS011;38621;52.830;6.914;2023-03-01T14:32:57;7.40;;;5.18;;
52724;SDS011;38621;52.830;6.914;2023-03-01T14:35:26;8.77;;;4.72;;
52724;SDS011;38621;52.830;6.914;2023-03-01T14:37:56;10.52;;;5.40;;
52724;SDS011;38621;52.830;6.914;2023-03-01T14:42:53;7.18;;;4.97;;
52724;SDS011;38621;52.830;6.914;2023-03-01T14:45:25;6.70;;;4.78;;
52724;SDS011;38621;52.830;6.914;2023-03-01T14:47:53;9.30;;;5.03;;
52724;SDS011;38621;52.830;6.914;2023-03-01T14:51:03;7.05;;;4.97;;
52724;SDS011;38621;52.830;6.914;2023-03-01T14:53:16;8.57;;;5.28;;
52724;SDS011;38621;52.830;6.914;2023-03-01T14:56:12;8.48;;;4.88;;
52724;SDS011;38621;52.830;6.914;2023-03-01T14:58:31;7.60;;;4.60;;
52724;SDS011;38621;52.830;6.914;2023-03-01T15:01:04;7.10;;;4.75;;
52724;SDS011;38621;52.830;6.914;2023-03-01T15:03:37;7.13;;;4.75;;
52724;SDS011;38621;52.830;6.914;2023-03-01T15:06:07;6.70;;;4.75;;
52724;SDS011;38621;52.830;6.914;2023-03-01T15:08:34;6.68;;;4.68;;
52724;SDS011;38621;52.830;6.914;2023-03-01T15:11:19;8.30;;;4.70;;
52724;SDS011;38621;52.830;6.914;2023-03-01T15:13:49;6.50;;;4.57;;
52724;SDS011;38621;52.830;6.914;2023-03-01T15:16:19;6.45;;;4.60;;
52724;SDS011;38621;52.830;6.914;2023-03-01T15:18:55;7.05;;;5.05;;
52724;SDS011;38621;52.830;6.914;2023-03-01T15:21:24;8.05;;;5.43;;
52724;SDS011;38621;52.830;6.914;2023-03-01T15:23:58;7.43;;;5.40;;
52724;SDS011;38621;52.830;6.914;2023-03-01T15:26:44;8.77;;;5.38;;
52724;SDS011;38621;52.830;6.914;2023-03-01T15:29:19;9.07;;;5.70;;
52724;SDS011;38621;52.830;6.914;2023-03-01T15:37:02;6.75;;;5.15;;
52724;SDS011;38621;52.830;6.914;2023-03-01T15:39:38;7.38;;;4.97;;
52724;SDS011;38621;52.830;6.914;2023-03-01T15:44:34;7.38;;;5.55;;
52724;SDS011;38621;52.830;6.914;2023-03-01T15:47:02;7.55;;;5.78;;
52724;SDS011;38621;52.830;6.914;2023-03-01T15:49:40;8.20;;;5.47;;
52724;SDS011;38621;52.830;6.914;2023-03-01T15:52:15;7.10;;;5.80;;
52724;SDS011;38621;52.830;6.914;2023-03-01T15:54:46;7.25;;;5.28;;
52724;SDS011;38621;52.830;6.914;2023-03-01T15:57:12;8.98;;;5.82;;
52724;SDS011;38621;52.830;6.914;2023-03-01T15:59:40;7.63;;;5.30;;
52724;SDS011;38621;52.830;6.914;2023-03-01T16:02:10;8.43;;;5.45;;
52724;SDS011;38621;52.830;6.914;2023-03-01T16:04:38;8.98;;;6.60;;
52724;SDS011;38621;52.830;6.914;2023-03-01T16:07:04;7.22;;;5.75;;
52724;SDS011;38621;52.830;6.914;2023-03-01T16:09:30;7.15;;;5.53;;
52724;SDS011;38621;52.830;6.914;2023-03-01T16:11:57;7.40;;;5.32;;
52724;SDS011;38621;52.830;6.914;2023-03-01T16:14:23;8.55;;;6.30;;
52724;SDS011;38621;52.830;6.914;2023-03-01T16:16:49;9.27;;;6.40;;
52724;SDS011;38621;52.830;6.914;2023-03-01T16:19:15;8.98;;;7.20;;
52724;SDS011;38621;52.830;6.914;2023-03-01T16:21:41;9.43;;;6.28;;
52724;SDS011;38621;52.830;6.914;2023-03-01T16:24:12;8.85;;;7.00;;
52724;SDS011;38621;52.830;6.914;2023-03-01T16:26:38;9.55;;;6.65;;
52724;SDS011;38621;52.830;6.914;2023-03-01T16:29:04;9.90;;;6.75;;
52724;SDS011;38621;52.830;6.914;2023-03-01T16:31:30;12.02;;;9.00;;
52724;SDS011;38621;52.830;6.914;2023-03-01T16:33:56;12.02;;;10.80;;
52724;SDS011;38621;52.830;6.914;2023-03-01T16:36:23;14.57;;;12.13;;
52724;SDS011;38621;52.830;6.914;2023-03-01T16:38:51;29.25;;;22.02;;
52724;SDS011;38621;52.830;6.914;2023-03-01T16:41:18;84.95;;;54.70;;
52724;SDS011;38621;52.830;6.914;2023-03-01T16:43:46;60.33;;;40.38;;
52724;SDS011;38621;52.830;6.914;2023-03-01T16:46:18;100.10;;;67.18;;
52724;SDS011;38621;52.830;6.914;2023-03-01T16:48:45;15.75;;;12.73;;
52724;SDS011;38621;52.830;6.914;2023-03-01T16:51:12;20.70;;;17.70;;
52724;SDS011;38621;52.830;6.914;2023-03-01T16:53:38;18.33;;;16.42;;
52724;SDS011;38621;52.830;6.914;2023-03-01T16:56:06;14.10;;;12.07;;
52724;SDS011;38621;52.830;6.914;2023-03-01T16:58:34;11.48;;;8.77;;
52724;SDS011;38621;52.830;6.914;2023-03-01T17:01:05;12.65;;;10.65;;
52724;SDS011;38621;52.830;6.914;2023-03-01T17:03:32;10.25;;;8.25;;
52724;SDS011;38621;52.830;6.914;2023-03-01T17:06:02;10.75;;;7.50;;
52724;SDS011;38621;52.830;6.914;2023-03-01T17:08:30;10.27;;;7.55;;
52724;SDS011;38621;52.830;6.914;2023-03-01T17:11:01;11.77;;;7.45;;
52724;SDS011;38621;52.830;6.914;2023-03-01T17:13:31;12.85;;;9.27;;
52724;SDS011;38621;52.830;6.914;2023-03-01T17:15:57;10.85;;;7.05;;
52724;SDS011;38621;52.830;6.914;2023-03-01T17:18:22;15.77;;;8.57;;
52724;SDS011;38621;52.830;6.914;2023-03-01T17:20:49;13.40;;;8.98;;
52724;SDS011;38621;52.830;6.914;2023-03-01T17:23:15;11.70;;;8.15;;
52724;SDS011;38621;52.830;6.914;2023-03-01T17:25:41;14.57;;;12.80;;
52724;SDS011;38621;52.830;6.914;2023-03-01T17:28:11;13.35;;;9.00;;
52724;SDS011;38621;52.830;6.914;2023-03-01T17:30:40;12.32;;;9.07;;